Time;durP1;ratioP1;P1;durP2;ratioP2;P2;SDS_P1;SDS_P2;PMS_P1;PMS_P2;Temp;Humidity;BMP_temperature;BMP_pressure;BME280_temperature;BME280_humidity;BME280_pressure;Samples;Min_cycle;Max_cycle;Signal;HPM_P1;HPM_P2
2023/10/08 00:02:29;;;;;;;12.43;4.45;;;20.80;50.30;;;;;;4999639;28;20053;-45
2023/10/08 00:04:57;;;;;;;9.68;4.20;;;20.80;50.20;;;;;;4999825;28;20065;-47
2023/10/08 00:07:24;;;;;;;11.93;3.97;;;20.90;50.10;;;;;;4999423;28;20053;-47
2023/10/08 00:09:52;;;;;;;13.68;4.20;;;20.80;49.90;;;;;;4999316;28;20061;-46
2023/10/08 00:12:20;;;;;;;14.82;3.95;;;20.90;49.80;;;;;;5000441;28;20057;-48
2023/10/08 00:14:52;;;;;;;11.45;4.32;;;20.80;49.70;;;;;;5000407;28;20046;-49
2023/10/08 00:17:19;;;;;;;8.88;4.05;;;20.80;49.70;;;;;;4999986;28;20066;-44
2023/10/08 00:19:52;;;;;;;9.70;3.97;;;20.80;49.80;;;;;;4999405;28;20066;-44
2023/10/08 00:22:19;;;;;;;8.60;4.30;;;20.80;49.60;;;;;;4998362;28;20060;-45
2023/10/08 00:24:49;;;;;;;12.20;4.25;;;20.80;49.70;;;;;;5000315;28;20137;-47
2023/10/08 00:27:17;;;;;;;11.10;4.72;;;20.80;49.80;;;;;;4998923;28;20482;-50
2023/10/08 00:29:45;;;;;;;15.38;4.57;;;20.80;49.50;;;;;;5000613;28;20137;-48
2023/10/08 00:32:14;;;;;;;8.05;3.90;;;20.80;49.40;;;;;;4997446;28;20058;-47
2023/10/08 00:34:43;;;;;;;10.70;4.47;;;20.80;49.40;;;;;;4999251;28;20410;-43
2023/10/08 00:37:14;;;;;;;17.20;4.75;;;20.80;49.20;;;;;;4999039;28;20050;-46
2023/10/08 00:39:41;;;;;;;14.75;4.78;;;20.80;49.10;;;;;;5000285;28;20045;-47
2023/10/08 00:42:09;;;;;;;9.65;3.97;;;20.80;49.00;;;;;;4999337;28;20069;-45
2023/10/08 00:44:47;;;;;;;9.85;4.20;;;20.80;48.90;;;;;;4999744;28;20069;-47
2023/10/08 00:47:18;;;;;;;9.05;4.10;;;20.80;49.10;;;;;;4999572;28;20053;-47
2023/10/08 00:50:03;;;;;;;12.18;4.50;;;20.80;49.00;;;;;;5000033;28;20061;-49
2023/10/08 00:52:38;;;;;;;10.73;4.20;;;20.70;49.00;;;;;;4999878;28;20050;-46
2023/10/08 00:55:21;;;;;;;9.07;4.38;;;20.70;49.00;;;;;;5004109;28;20601;-47
2023/10/08 00:57:53;;;;;;;12.52;4.25;;;20.70;48.90;;;;;;5003393;28;20065;-44
2023/10/08 01:00:22;;;;;;;9.73;4.38;;;20.70;48.90;;;;;;5005161;28;20485;-42
2023/10/08 01:03:00;;;;;;;11.93;4.35;;;20.70;49.00;;;;;;5001845;28;20509;-49
2023/10/08 01:05:41;;;;;;;8.07;3.83;;;20.70;48.90;;;;;;5003353;28;20061;-46
2023/10/08 01:08:12;;;;;;;8.60;4.18;;;20.70;49.00;;;;;;5003222;28;20097;-47
2023/10/08 01:10:43;;;;;;;10.45;4.10;;;20.70;49.00;;;;;;5002103;28;20058;-49
2023/10/08 01:13:15;;;;;;;12.20;4.75;;;20.60;49.00;;;;;;5002826;28;20092;-47
2023/10/08 01:15:45;;;;;;;9.45;4.35;;;20.60;49.00;;;;;;5002841;28;20057;-46
2023/10/08 01:18:17;;;;;;;7.75;3.83;;;20.60;49.00;;;;;;5002236;28;20046;-51
2023/10/08 01:20:52;;;;;;;8.93;4.30;;;20.60;49.20;;;;;;5002640;28;20065;-48
2023/10/08 01:23:22;;;;;;;10.20;4.13;;;20.60;49.30;;;;;;5001872;28;20367;-47
2023/10/08 01:25:52;;;;;;;8.05;3.83;;;20.60;49.40;;;;;;5002859;28;20053;-45
2023/10/08 01:28:25;;;;;;;7.95;3.95;;;20.60;49.30;;;;;;5003332;28;20412;-47
2023/10/08 01:30:54;;;;;;;7.72;3.80;;;20.50;49.20;;;;;;5000765;28;20050;-49
2023/10/08 01:33:28;;;;;;;10.43;4.40;;;20.50;49.20;;;;;;5002182;28;20504;-46
2023/10/08 01:36:01;;;;;;;7.07;3.67;;;20.50;49.20;;;;;;5001652;28;20786;-48
2023/10/08 01:38:30;;;;;;;7.77;3.77;;;20.50;49.30;;;;;;5003734;28;20061;-46
2023/10/08 01:41:03;;;;;;;7.05;3.50;;;20.50;49.20;;;;;;5002103;28;20065;-47
2023/10/08 01:43:30;;;;;;;12.00;4.50;;;20.50;49.30;;;;;;5003121;28;20453;-48
2023/10/08 01:45:58;;;;;;;9.75;4.20;;;20.50;49.40;;;;;;5001934;28;20054;-47
2023/10/08 01:48:27;;;;;;;14.18;4.50;;;20.50;49.40;;;;;;5003076;28;20058;-46
2023/10/08 01:51:01;;;;;;;9.18;3.92;;;20.50;49.40;;;;;;5001729;28;20053;-45
2023/10/08 01:53:31;;;;;;;9.20;4.22;;;20.40;49.40;;;;;;5001909;28;20057;-45
2023/10/08 01:55:58;;;;;;;10.77;4.25;;;20.40;49.50;;;;;;5002569;28;20058;-50
2023/10/08 01:58:25;;;;;;;8.57;3.88;;;20.40;49.70;;;;;;5003208;28;20506;-48
2023/10/08 02:00:59;;;;;;;10.13;4.30;;;20.40;49.70;;;;;;5001905;28;20048;-50
2023/10/08 02:03:27;;;;;;;10.23;4.07;;;20.40;49.70;;;;;;5000883;28;20061;-47
2023/10/08 02:05:58;;;;;;;10.00;4.72;;;20.30;49.60;;;;;;5003025;28;20414;-49
2023/10/08 02:08:27;;;;;;;10.85;4.43;;;20.30;49.60;;;;;;5002766;28;20061;-48
2023/10/08 02:10:56;;;;;;;14.80;4.18;;;20.30;49.60;;;;;;5001679;28;20394;-46
2023/10/08 02:13:23;;;;;;;9.60;4.40;;;20.30;49.70;;;;;;5001075;28;20057;-45
2023/10/08 02:15:52;;;;;;;11.10;4.82;;;20.20;49.60;;;;;;5002826;28;20050;-46
2023/10/08 02:18:20;;;;;;;6.80;3.72;;;20.20;49.80;;;;;;5002119;28;20145;-47
2023/10/08 02:20:48;;;;;;;8.23;4.00;;;20.20;49.90;;;;;;5001785;28;20045;-50
2023/10/08 02:23:15;;;;;;;11.73;3.90;;;20.20;50.00;;;;;;5002345;28;20064;-45
2023/10/08 02:25:44;;;;;;;11.32;4.63;;;20.20;49.80;;;;;;5002804;28;20502;-51
2023/10/08 02:28:15;;;;;;;8.27;4.22;;;20.20;49.70;;;;;;5002695;28;20076;-47
2023/10/08 02:30:42;;;;;;;8.75;4.13;;;20.20;50.00;;;;;;5001725;28;20049;-49
2023/10/08 02:33:15;;;;;;;10.75;4.40;;;20.10;50.30;;;;;;5001086;28;20046;-46
2023/10/08 02:35:43;;;;;;;10.07;4.15;;;20.10;50.40;;;;;;5001772;28;20062;-47
2023/10/08 02:38:12;;;;;;;11.38;3.92;;;20.00;50.40;;;;;;5001578;28;20050;-46
2023/10/08 02:40:44;;;;;;;10.93;4.28;;;20.00;50.50;;;;;;5001537;28;20061;-49
2023/10/08 02:43:14;;;;;;;11.15;4.18;;;20.00;50.50;;;;;;5000279;28;20057;-49
2023/10/08 02:45:42;;;;;;;10.98;3.75;;;20.00;50.60;;;;;;5002190;28;20069;-48
2023/10/08 02:48:12;;;;;;;13.38;4.93;;;20.00;50.70;;;;;;5001203;28;20510;-48
2023/10/08 02:50:40;;;;;;;12.77;4.10;;;19.90;50.80;;;;;;4999528;28;20058;-47
2023/10/08 02:53:11;;;;;;;10.10;4.10;;;19.90;50.60;;;;;;4999716;28;20133;-51
2023/10/08 02:55:43;;;;;;;9.38;3.92;;;19.90;50.80;;;;;;5002250;28;20062;-51
2023/10/08 02:58:15;;;;;;;9.38;3.92;;;19.90;51.10;;;;;;4998610;28;20432;-50
2023/10/08 03:00:42;;;;;;;8.30;4.10;;;19.80;51.10;;;;;;5000362;28;20050;-48
2023/10/08 03:03:15;;;;;;;8.68;4.15;;;19.80;51.30;;;;;;5000421;28;20057;-47
2023/10/08 03:05:46;;;;;;;13.10;4.20;;;19.80;51.40;;;;;;4999907;28;20421;-45
2023/10/08 03:08:13;;;;;;;8.70;4.15;;;19.80;51.40;;;;;;5001067;28;20054;-48
2023/10/08 03:10:41;;;;;;;10.90;4.78;;;19.70;51.50;;;;;;5000498;28;20049;-47
2023/10/08 03:13:10;;;;;;;11.77;4.47;;;19.70;52.10;;;;;;5000287;28;20050;-46
2023/10/08 03:15:46;;;;;;;7.68;4.35;;;19.70;51.50;;;;;;4999235;28;20054;-47
2023/10/08 03:18:15;;;;;;;7.97;4.28;;;19.70;51.40;;;;;;4999804;28;20554;-47
2023/10/08 03:20:45;;;;;;;11.18;4.38;;;19.60;51.30;;;;;;4998997;28;20414;-47
2023/10/08 03:23:23;;;;;;;8.77;4.00;;;19.60;51.30;;;;;;5000586;28;21128;-47
2023/10/08 03:25:59;;;;;;;16.35;4.22;;;19.60;51.30;;;;;;5001918;28;20050;-46
2023/10/08 03:28:27;;;;;;;8.23;3.83;;;19.60;51.40;;;;;;5000523;28;20064;-47
2023/10/08 03:31:04;;;;;;;9.00;4.20;;;19.50;51.50;;;;;;5000437;28;20598;-47
2023/10/08 03:33:34;;;;;;;14.13;4.57;;;19.50;51.60;;;;;;5000075;28;21013;-49
2023/10/08 03:36:09;;;;;;;9.27;4.15;;;19.50;51.70;;;;;;5000748;28;20489;-50
2023/10/08 03:38:50;;;;;;;9.70;3.92;;;19.50;51.70;;;;;;5000969;28;20086;-49
2023/10/08 03:41:20;;;;;;;12.15;4.50;;;19.50;51.80;;;;;;4999690;28;20049;-48
2023/10/08 03:43:56;;;;;;;11.38;3.95;;;19.50;51.70;;;;;;5000679;28;20054;-48
2023/10/08 03:46:26;;;;;;;7.18;3.60;;;19.40;51.70;;;;;;4998441;28;20050;-49
2023/10/08 03:48:57;;;;;;;8.07;3.53;;;19.40;51.80;;;;;;5000267;28;20076;-48
2023/10/08 03:51:27;;;;;;;10.10;4.40;;;19.40;52.50;;;;;;4997224;28;20081;-47
2023/10/08 03:54:15;;;;;;;12.20;4.13;;;19.40;51.90;;;;;;4999083;28;20061;-46
2023/10/08 03:56:46;;;;;;;10.38;3.85;;;19.40;51.90;;;;;;5000736;28;20061;-47
2023/10/08 03:59:14;;;;;;;7.55;3.90;;;19.40;51.90;;;;;;4999177;28;20494;-49
2023/10/08 04:01:43;;;;;;;8.23;4.18;;;19.40;52.00;;;;;;4998442;28;20213;-49
2023/10/08 04:04:14;;;;;;;8.65;4.10;;;19.40;51.90;;;;;;4998026;28;20050;-48
2023/10/08 04:06:48;;;;;;;8.55;4.47;;;19.40;52.30;;;;;;5000649;28;20065;-49
2023/10/08 04:09:23;;;;;;;9.27;3.95;;;19.40;52.50;;;;;;5000225;28;20061;-50
2023/10/08 04:11:53;;;;;;;9.02;4.47;;;19.40;52.50;;;;;;5000371;28;20049;-48
2023/10/08 04:14:23;;;;;;;10.80;4.82;;;19.40;52.60;;;;;;5000113;28;20053;-49
2023/10/08 04:16:52;;;;;;;6.90;3.42;;;19.40;52.60;;;;;;4996668;28;20058;-49
2023/10/08 04:19:20;;;;;;;9.48;4.32;;;19.40;52.60;;;;;;4998475;28;20520;-48
2023/10/08 04:21:53;;;;;;;11.23;4.53;;;19.40;52.50;;;;;;4999810;28;20041;-45
2023/10/08 04:24:28;;;;;;;8.88;3.92;;;19.40;52.40;;;;;;4996920;28;20046;-48
2023/10/08 04:27:02;;;;;;;11.30;4.32;;;19.40;52.30;;;;;;5003187;28;20516;-48
2023/10/08 04:29:32;;;;;;;9.68;4.20;;;19.40;52.30;;;;;;5005119;28;20072;-45
2023/10/08 04:32:09;;;;;;;13.10;4.32;;;19.50;52.30;;;;;;5000087;28;20056;-49
2023/10/08 04:34:36;;;;;;;10.02;4.47;;;19.40;52.00;;;;;;5004345;28;20405;-48
2023/10/08 04:37:12;;;;;;;12.48;4.55;;;19.40;52.20;;;;;;5006383;28;20064;-49
2023/10/08 04:39:40;;;;;;;11.68;4.35;;;19.50;52.40;;;;;;5004478;28;20041;-48
2023/10/08 04:42:10;;;;;;;9.10;4.80;;;19.50;52.60;;;;;;5005876;28;20516;-46
2023/10/08 04:44:39;;;;;;;9.80;3.80;;;19.40;52.60;;;;;;5007136;28;20057;-47
2023/10/08 04:47:31;;;;;;;9.85;4.18;;;19.40;52.70;;;;;;5006124;28;20421;-47
2023/10/08 04:49:57;;;;;;;10.95;4.15;;;19.40;52.80;;;;;;5006932;28;20061;-49
2023/10/08 04:52:27;;;;;;;8.65;3.50;;;19.40;52.80;;;;;;5007054;28;20052;-49
2023/10/08 04:54:56;;;;;;;9.20;4.18;;;19.40;52.80;;;;;;5007316;28;20417;-50
2023/10/08 04:57:25;;;;;;;13.85;5.05;;;19.40;52.60;;;;;;5008316;28;20073;-46
2023/10/08 04:59:57;;;;;;;8.48;4.07;;;19.30;52.40;;;;;;5008205;28;20063;-50
2023/10/08 05:02:36;;;;;;;10.95;4.53;;;19.30;52.50;;;;;;5007282;28;20073;-47
2023/10/08 05:08:01;;;;;;;11.20;4.18;;;19.30;52.70;;;;;;5027864;28;20061;-47
2023/10/08 05:11:01;;;;;;;9.40;4.22;;;19.30;52.90;;;;;;5026428;28;20060;-48
2023/10/08 05:13:33;;;;;;;12.68;4.70;;;19.30;53.00;;;;;;5026578;28;20053;-49
2023/10/08 05:16:11;;;;;;;9.50;4.47;;;19.30;52.80;;;;;;5026625;28;20068;-47
2023/10/08 05:19:08;;;;;;;9.40;4.32;;;19.30;52.50;;;;;;5027650;28;20049;-52
2023/10/08 05:21:51;;;;;;;9.45;4.20;;;19.30;52.40;;;;;;5027830;28;20417;-48
2023/10/08 05:24:27;;;;;;;14.02;7.53;;;19.20;52.30;;;;;;5027628;28;20045;-50
2023/10/08 05:27:25;;;;;;;20.88;8.38;;;19.20;52.50;;;;;;5028173;28;20057;-48
2023/10/08 05:32:51;;;;;;;10.55;4.90;;;19.20;52.40;;;;;;5027139;28;20045;-50
2023/10/08 05:35:38;;;;;;;10.75;4.45;;;19.20;52.60;;;;;;5027135;28;20057;-47
2023/10/08 05:38:15;;;;;;;8.27;4.30;;;19.20;52.50;;;;;;5024420;28;20064;-46
2023/10/08 05:43:48;;;;;;;14.32;5.28;;;19.20;52.50;;;;;;5030681;28;20056;-46
2023/10/08 05:46:39;;;;;;;15.52;5.80;;;19.10;52.40;;;;;;5022318;28;20053;-45
2023/10/08 05:49:26;;;;;;;14.65;7.15;;;19.10;52.40;;;;;;5023292;28;20049;-46
2023/10/08 05:52:13;;;;;;;17.00;5.80;;;19.10;52.40;;;;;;5024453;28;21097;-47
2023/10/08 05:55:09;;;;;;;10.77;4.82;;;19.10;52.40;;;;;;5024595;28;20061;-45
2023/10/08 05:57:46;;;;;;;10.52;5.15;;;19.10;52.40;;;;;;5024268;28;20493;-46
2023/10/08 06:03:09;;;;;;;11.25;4.80;;;19.10;52.30;;;;;;5010975;28;20421;-47
2023/10/08 06:06:02;;;;;;;8.55;4.15;;;19.00;52.30;;;;;;5021964;28;20057;-46
2023/10/08 06:08:48;;;;;;;12.00;4.85;;;19.10;52.50;;;;;;5022014;28;20060;-45
2023/10/08 06:11:27;;;;;;;11.90;4.32;;;19.10;52.60;;;;;;5022551;28;20053;-44
2023/10/08 06:14:00;;;;;;;10.50;4.18;;;19.00;52.40;;;;;;5020882;28;20060;-47
2023/10/08 06:16:41;;;;;;;11.30;4.50;;;19.10;52.60;;;;;;5020832;28;20056;-49
2023/10/08 06:19:09;;;;;;;17.67;4.78;;;19.00;52.40;;;;;;5022291;28;20056;-47
2023/10/08 06:21:38;;;;;;;11.02;4.53;;;19.00;52.50;;;;;;5022372;28;20046;-46
2023/10/08 06:24:09;;;;;;;9.60;5.05;;;19.00;52.60;;;;;;5022275;28;20521;-48
2023/10/08 06:26:42;;;;;;;15.13;4.63;;;19.00;52.80;;;;;;5022895;28;20057;-45
2023/10/08 06:29:26;;;;;;;10.55;4.72;;;18.90;52.70;;;;;;5021568;28;20053;-44
2023/10/08 06:31:55;;;;;;;;;;;18.90;52.70;;;;;;5022647;28;20390;-47
2023/10/08 06:34:27;;;;;;;8.82;4.07;;;18.90;52.80;;;;;;5021567;28;19936;-45
2023/10/08 06:36:57;;;;;;;12.35;4.80;;;18.90;52.90;;;;;;5019816;28;20057;-50
2023/10/08 06:39:33;;;;;;;15.55;5.00;;;18.90;53.10;;;;;;5022670;28;20072;-45
2023/10/08 06:42:02;;;;;;;12.02;4.70;;;18.80;53.10;;;;;;5022099;28;20056;-49
2023/10/08 06:44:31;;;;;;;10.25;4.43;;;18.80;53.20;;;;;;5022576;28;20072;-49
2023/10/08 06:46:58;;;;;;;9.98;4.43;;;18.80;53.20;;;;;;5022068;28;20046;-49
2023/10/08 06:49:26;;;;;;;8.38;3.72;;;18.80;53.30;;;;;;5021602;28;20413;-47
2023/10/08 06:51:55;;;;;;;11.90;4.80;;;18.90;53.50;;;;;;5021880;28;20053;-45
2023/10/08 06:54:30;;;;;;;11.90;4.95;;;18.80;53.60;;;;;;5023067;28;20053;-48
2023/10/08 06:56:59;;;;;;;15.25;5.32;;;18.80;53.60;;;;;;5021890;28;20057;-46
2023/10/08 06:59:31;;;;;;;16.52;5.00;;;18.80;53.70;;;;;;5021567;28;20057;-47
2023/10/08 07:01:59;;;;;;;13.50;4.82;;;18.90;53.70;;;;;;5019656;28;20045;-48
2023/10/08 07:04:26;;;;;;;11.98;4.28;;;18.90;53.70;;;;;;5020384;28;20049;-48
2023/10/08 07:06:54;;;;;;;19.30;5.28;;;18.90;54.20;;;;;;5021965;28;20057;-44
2023/10/08 07:09:29;;;;;;;13.88;4.93;;;18.90;53.80;;;;;;5023174;28;20071;-45
2023/10/08 07:12:05;;;;;;;11.07;4.85;;;19.00;53.80;;;;;;5021872;28;20061;-48
2023/10/08 07:14:33;;;;;;;11.93;4.80;;;19.00;53.90;;;;;;5019733;28;20049;-44
2023/10/08 07:17:06;;;;;;;12.25;4.80;;;19.00;53.80;;;;;;5020264;28;20049;-44
2023/10/08 07:19:37;;;;;;;14.95;5.07;;;19.00;53.80;;;;;;5020341;28;20051;-47
2023/10/08 07:22:05;;;;;;;9.27;4.47;;;19.10;53.70;;;;;;5020191;28;20057;-48
2023/10/08 07:24:34;;;;;;;17.10;4.57;;;19.10;53.80;;;;;;5022049;28;20053;-49
2023/10/08 07:27:08;;;;;;;9.13;4.55;;;19.10;53.80;;;;;;5021978;28;20087;-47
2023/10/08 07:29:36;;;;;;;11.65;4.75;;;19.20;53.80;;;;;;5021498;28;20065;-49
2023/10/08 07:32:09;;;;;;;15.18;5.38;;;19.20;53.70;;;;;;5018455;28;20042;-49
2023/10/08 07:34:37;;;;;;;13.63;5.03;;;19.30;53.80;;;;;;5018855;28;20049;-46
2023/10/08 07:37:05;;;;;;;12.63;5.68;;;19.30;53.80;;;;;;5020032;28;20056;-48
2023/10/08 07:39:36;;;;;;;15.55;5.55;;;19.30;53.70;;;;;;5021076;28;20065;-50
2023/10/08 07:42:07;;;;;;;11.15;4.65;;;19.30;53.60;;;;;;5022013;28;20057;-47
2023/10/08 07:44:36;;;;;;;12.43;4.50;;;19.30;53.60;;;;;;5019881;28;20485;-49
2023/10/08 07:47:09;;;;;;;11.15;5.00;;;19.40;53.70;;;;;;5020189;28;20049;-45
2023/10/08 07:49:37;;;;;;;14.77;5.17;;;19.40;53.70;;;;;;5019539;28;20049;-44
2023/10/08 07:52:05;;;;;;;12.27;5.57;;;19.40;53.70;;;;;;5020415;28;20557;-44
2023/10/08 07:54:34;;;;;;;16.00;5.05;;;19.50;53.70;;;;;;5021754;28;20057;-47
2023/10/08 07:57:09;;;;;;;12.98;5.22;;;19.50;53.70;;;;;;5021681;28;20425;-44
2023/10/08 07:59:41;;;;;;;12.70;5.15;;;19.50;53.80;;;;;;5021837;28;20080;-50
2023/10/08 08:02:11;;;;;;;10.35;4.72;;;19.60;53.80;;;;;;5020041;28;21230;-47
2023/10/08 08:04:39;;;;;;;9.85;4.75;;;19.60;53.80;;;;;;5016391;28;20049;-49
2023/10/08 08:07:07;;;;;;;9.48;4.68;;;19.60;53.60;;;;;;5020827;28;20413;-51
2023/10/08 08:09:37;;;;;;;8.93;4.47;;;19.70;53.60;;;;;;5021651;28;20053;-46
2023/10/08 08:12:10;;;;;;;11.07;4.93;;;19.70;53.70;;;;;;5021349;28;20053;-47
2023/10/08 08:14:41;;;;;;;10.25;4.75;;;19.80;53.80;;;;;;5020878;28;20053;-46
2023/10/08 08:17:14;;;;;;;10.50;5.32;;;19.80;53.60;;;;;;5020116;28;20057;-46
2023/10/08 08:19:43;;;;;;;11.68;5.38;;;19.80;53.70;;;;;;5019810;28;20057;-50
2023/10/08 08:22:15;;;;;;;14.20;6.20;;;19.80;53.70;;;;;;5021244;28;20053;-45
2023/10/08 08:24:44;;;;;;;14.40;5.70;;;19.80;53.60;;;;;;5019465;28;20064;-48
2023/10/08 08:27:23;;;;;;;15.70;5.82;;;19.80;53.50;;;;;;5021259;28;20049;-47
2023/10/08 08:29:55;;;;;;;15.52;5.35;;;19.80;53.60;;;;;;5021217;28;20053;-44
2023/10/08 08:32:23;;;;;;;13.20;5.53;;;19.80;54.10;;;;;;5021527;28;20053;-50
2023/10/08 08:34:52;;;;;;;10.80;5.32;;;19.80;53.90;;;;;;5019917;28;20440;-45
2023/10/08 08:37:22;;;;;;;14.13;5.55;;;19.80;54.00;;;;;;5020473;28;20494;-47
2023/10/08 08:39:49;;;;;;;11.20;4.90;;;19.90;53.90;;;;;;5018542;28;20061;-49
2023/10/08 08:42:21;;;;;;;15.15;5.70;;;19.90;53.70;;;;;;5020869;28;20393;-47
2023/10/08 08:44:50;;;;;;;13.55;5.35;;;20.00;53.50;;;;;;5021351;28;20049;-48
2023/10/08 08:47:24;;;;;;;13.27;5.65;;;20.00;53.80;;;;;;5020564;28;20402;-51
2023/10/08 08:49:55;;;;;;;17.55;5.97;;;20.00;53.70;;;;;;5020391;28;20053;-49
2023/10/08 08:52:22;;;;;;;15.15;5.78;;;20.00;53.50;;;;;;5020706;28;20053;-46
2023/10/08 08:54:51;;;;;;;20.17;6.78;;;20.10;53.70;;;;;;5020745;28;20060;-48
2023/10/08 08:57:20;;;;;;;19.00;5.95;;;20.10;53.90;;;;;;5021196;28;20049;-47
2023/10/08 08:59:54;;;;;;;13.73;5.38;;;20.10;53.90;;;;;;5018040;28;20052;-50
2023/10/08 09:02:23;;;;;;;;;;;20.10;54.10;;;;;;5021079;28;20060;-50
2023/10/08 09:04:53;;;;;;;15.35;5.40;;;20.10;53.90;;;;;;5019625;28;19921;-50
2023/10/08 09:07:22;;;;;;;16.98;5.97;;;20.10;54.10;;;;;;5017722;28;20053;-49
2023/10/08 09:09:50;;;;;;;15.70;5.97;;;20.20;54.20;;;;;;5019924;28;20459;-49
2023/10/08 09:12:18;;;;;;;18.33;5.65;;;20.20;54.20;;;;;;5019229;28;20057;-47
2023/10/08 09:14:47;;;;;;;13.48;6.07;;;20.20;54.20;;;;;;5022837;28;20675;-49
2023/10/08 09:17:17;;;;;;;12.13;5.90;;;20.20;54.20;;;;;;5023783;28;20518;-47
2023/10/08 09:19:46;;;;;;;17.38;5.95;;;20.20;54.00;;;;;;5021042;28;20060;-46
2023/10/08 09:22:15;;;;;;;16.92;6.88;;;20.20;53.90;;;;;;5023936;28;20053;-46
2023/10/08 09:24:43;;;;;;;16.85;6.47;;;20.20;54.00;;;;;;5024493;28;20056;-44
2023/10/08 09:27:14;;;;;;;14.23;5.90;;;20.20;53.90;;;;;;5024655;28;20417;-46
2023/10/08 09:29:42;;;;;;;19.15;5.88;;;20.20;53.90;;;;;;5024441;28;20057;-46
2023/10/08 09:32:10;;;;;;;22.05;7.47;;;20.20;54.40;;;;;;5024209;28;20053;-44
2023/10/08 09:34:38;;;;;;;18.48;6.72;;;20.20;54.60;;;;;;5024471;28;20421;-46
2023/10/08 09:37:08;;;;;;;16.40;6.22;;;20.20;54.40;;;;;;5023811;28;20053;-46
2023/10/08 09:39:35;;;;;;;20.58;6.82;;;20.20;54.70;;;;;;5022461;28;20068;-46
2023/10/08 09:42:06;;;;;;;21.27;7.07;;;20.20;54.30;;;;;;5020881;28;20611;-46
2023/10/08 09:44:33;;;;;;;27.63;6.68;;;20.30;54.60;;;;;;5020772;28;20057;-46
2023/10/08 09:47:05;;;;;;;17.58;7.25;;;20.30;54.40;;;;;;5019413;28;20054;-44
2023/10/08 09:49:33;;;;;;;17.90;7.28;;;20.30;54.40;;;;;;5021390;28;20068;-45
2023/10/08 09:52:07;;;;;;;20.55;6.40;;;20.30;54.40;;;;;;5020559;28;20074;-48
2023/10/08 09:54:43;;;;;;;18.90;6.70;;;20.30;54.40;;;;;;5023009;28;20433;-42
2023/10/08 09:57:11;;;;;;;17.33;7.68;;;20.30;54.80;;;;;;5023501;28;20057;-43
2023/10/08 09:59:41;;;;;;;18.95;7.03;;;20.30;54.80;;;;;;5021529;28;20633;-46
2023/10/08 10:02:10;;;;;;;24.15;7.05;;;20.40;55.20;;;;;;5019766;28;20057;-48
2023/10/08 10:04:44;;;;;;;16.73;7.10;;;20.40;55.20;;;;;;5023662;28;20045;-49
2023/10/08 10:07:16;;;;;;;19.77;7.97;;;20.40;54.80;;;;;;5022851;28;20057;-44
2023/10/08 10:09:46;;;;;;;30.35;8.45;;;20.50;54.70;;;;;;5020872;28;20064;-46
2023/10/08 10:12:18;;;;;;;18.80;6.97;;;20.50;54.80;;;;;;5021605;28;20045;-45
2023/10/08 10:14:48;;;;;;;18.90;6.82;;;20.50;54.90;;;;;;5021369;28;20059;-48
2023/10/08 10:17:18;;;;;;;23.50;7.78;;;20.60;54.80;;;;;;5021372;28;20057;-44
2023/10/08 10:19:47;;;;;;;20.42;7.15;;;20.60;54.80;;;;;;5021115;28;20046;-47
2023/10/08 10:22:28;;;;;;;25.25;7.50;;;20.70;55.20;;;;;;5022814;28;20049;-47
2023/10/08 10:24:57;;;;;;;26.15;7.20;;;20.70;54.50;;;;;;5022680;28;20057;-51
2023/10/08 10:27:25;;;;;;;25.98;8.38;;;20.70;54.20;;;;;;5023157;28;20061;-47
2023/10/08 10:29:52;;;;;;;19.60;6.20;;;20.70;54.30;;;;;;5023121;28;20060;-44
2023/10/08 10:32:19;;;;;;;34.65;9.00;;;20.70;54.20;;;;;;5022164;28;20060;-44
2023/10/08 10:34:51;;;;;;;24.95;8.50;;;20.70;54.30;;;;;;5023491;28;20057;-49
2023/10/08 10:37:21;;;;;;;20.88;9.23;;;20.60;54.50;;;;;;5023243;28;20056;-49
2023/10/08 10:39:59;;;;;;;28.77;9.38;;;20.60;54.70;;;;;;5020704;28;20057;-46
2023/10/08 10:42:28;;;;;;;29.00;10.32;;;20.70;55.00;;;;;;5021007;28;20061;-50
2023/10/08 10:44:58;;;;;;;27.50;11.05;;;20.60;55.00;;;;;;5023394;28;20424;-49
2023/10/08 10:47:42;;;;;;;38.10;11.73;;;20.70;55.40;;;;;;5022099;28;20076;-46
2023/10/08 10:52:56;;;;;;;33.72;11.05;;;20.90;55.40;;;;;;5021863;28;20053;-48
2023/10/08 10:55:31;;;;;;;27.33;11.52;;;20.90;55.30;;;;;;5021842;28;20398;-48
2023/10/08 10:58:11;;;;;;;40.13;13.48;;;21.00;55.80;;;;;;5021281;28;20045;-47
2023/10/08 11:00:47;;;;;;;25.92;10.35;;;21.10;55.40;;;;;;5021115;28;20053;-48
2023/10/08 11:03:17;;;;;;;33.17;12.98;;;21.10;55.20;;;;;;5021271;28;20045;-46
2023/10/08 11:05:51;;;;;;;36.47;13.05;;;21.10;55.40;;;;;;5021066;28;20056;-48
2023/10/08 11:08:22;;;;;;;38.25;12.77;;;21.10;55.40;;;;;;5020523;28;20060;-47
2023/10/08 11:10:51;;;;;;;30.15;12.52;;;21.10;55.30;;;;;;5022507;28;20056;-46
2023/10/08 11:13:20;;;;;;;26.85;11.48;;;21.20;55.50;;;;;;5021960;28;20057;-45
2023/10/08 11:15:52;;;;;;;38.28;13.55;;;21.10;55.50;;;;;;5020923;28;20058;-49
2023/10/08 11:18:20;;;;;;;32.58;13.93;;;21.20;55.60;;;;;;5019558;28;20060;-45
2023/10/08 11:20:54;;;;;;;33.33;14.05;;;21.20;55.90;;;;;;5019742;28;20049;-49
2023/10/08 11:23:41;;;;;;;30.00;14.32;;;21.20;56.10;;;;;;5019413;28;20060;-49
2023/10/08 11:26:08;;;;;;;35.05;14.15;;;21.20;56.20;;;;;;5019871;28;20057;-51
2023/10/08 11:28:41;;;;;;;33.22;14.70;;;21.20;56.20;;;;;;5022926;28;20069;-47
2023/10/08 11:31:11;;;;;;;36.00;16.00;;;21.20;56.50;;;;;;5021378;28;20432;-46
2023/10/08 11:33:40;;;;;;;37.58;15.75;;;21.20;56.40;;;;;;5020969;28;20052;-45
2023/10/08 11:36:18;;;;;;;33.92;13.38;;;21.20;56.40;;;;;;5021333;28;20069;-46
2023/10/08 11:38:50;;;;;;;32.92;13.85;;;21.20;56.40;;;;;;5021758;28;20655;-46
2023/10/08 11:41:27;;;;;;;29.98;14.68;;;21.20;56.60;;;;;;5021743;28;20406;-48
2023/10/08 11:43:58;;;;;;;30.27;12.50;;;21.20;56.30;;;;;;5022680;28;20053;-47
2023/10/08 11:46:27;;;;;;;33.00;13.25;;;21.20;56.30;;;;;;5021874;28;20076;-49
2023/10/08 11:48:58;;;;;;;32.05;13.32;;;21.30;56.50;;;;;;5021634;28;20053;-47
2023/10/08 11:51:25;;;;;;;33.40;13.35;;;21.30;56.70;;;;;;5020764;28;20077;-47
2023/10/08 11:53:54;;;;;;;24.10;11.73;;;21.30;56.70;;;;;;5021687;28;20056;-48
2023/10/08 11:56:23;;;;;;;35.92;13.80;;;21.40;56.70;;;;;;5021708;28;20504;-44
2023/10/08 11:58:52;;;;;;;30.38;12.65;;;21.40;56.70;;;;;;5021738;28;20076;-46
2023/10/08 12:01:20;;;;;;;35.88;14.88;;;21.40;56.70;;;;;;5020841;28;20069;-45
2023/10/08 12:03:49;;;;;;;31.17;12.07;;;21.50;56.80;;;;;;5020720;28;20046;-44
2023/10/08 12:06:19;;;;;;;37.63;13.65;;;21.60;56.80;;;;;;5019992;28;20053;-48
2023/10/08 12:08:47;;;;;;;31.08;13.35;;;21.60;56.80;;;;;;5020130;28;20413;-48
2023/10/08 12:11:16;;;;;;;28.92;13.48;;;21.70;56.70;;;;;;5021261;28;20385;-51
2023/10/08 12:13:45;;;;;;;28.55;13.15;;;21.70;56.60;;;;;;5022842;28;20060;-49
2023/10/08 12:16:18;;;;;;;30.33;14.20;;;21.70;56.50;;;;;;5020610;28;20060;-50
2023/10/08 12:18:48;;;;;;;31.15;13.63;;;21.80;56.50;;;;;;5021206;28;20060;-45
2023/10/08 12:21:17;;;;;;;29.80;13.70;;;21.80;56.70;;;;;;5019312;28;20049;-48
2023/10/08 12:23:46;;;;;;;31.73;15.25;;;21.80;56.80;;;;;;5020989;28;20053;-45
2023/10/08 12:26:15;;;;;;;33.38;14.25;;;21.80;56.50;;;;;;5021504;28;20532;-49
2023/10/08 12:28:45;;;;;;;42.20;15.52;;;21.80;56.20;;;;;;5021792;28;20061;-47
2023/10/08 12:31:15;;;;;;;36.22;15.00;;;21.80;56.20;;;;;;5020692;28;20057;-45
2023/10/08 12:33:44;;;;;;;31.60;15.15;;;21.80;56.00;;;;;;5020351;28;20053;-49
2023/10/08 12:36:12;;;;;;;30.08;15.25;;;21.80;56.10;;;;;;5020725;28;20060;-50
2023/10/08 12:38:42;;;;;;;33.80;14.07;;;21.80;56.00;;;;;;5021015;28;20058;-46
2023/10/08 12:41:12;;;;;;;30.35;13.80;;;21.80;55.80;;;;;;5021906;28;20401;-48
2023/10/08 12:43:42;;;;;;;32.85;13.25;;;21.80;55.80;;;;;;5021626;28;20405;-47
2023/10/08 12:48:55;;;;;;;34.83;13.80;;;21.90;56.10;;;;;;5023890;28;20414;-47
2023/10/08 12:51:24;;;;;;;27.65;11.85;;;21.90;55.90;;;;;;5024323;28;20053;-44
2023/10/08 12:53:58;;;;;;;24.92;11.45;;;21.90;55.70;;;;;;5024915;28;20597;-44
2023/10/08 12:56:35;;;;;;;30.67;12.65;;;21.90;55.60;;;;;;5024223;28;20060;-45
2023/10/08 12:59:04;;;;;;;28.38;12.05;;;22.00;55.90;;;;;;5025494;28;20060;-49
2023/10/08 13:01:35;;;;;;;30.02;13.18;;;22.00;56.50;;;;;;5023620;28;20057;-49
2023/10/08 13:04:07;;;;;;;32.47;13.57;;;22.00;56.00;;;;;;5023863;28;20049;-48
2023/10/08 13:20:21;;;;;;;30.90;12.88;;;22.20;55.90;;;;;;4980578;28;20041;-48
2023/10/08 13:22:48;;;;;;;29.67;12.55;;;22.20;55.70;;;;;;4979958;28;20065;-45
2023/10/08 13:25:17;;;;;;;29.13;13.07;;;22.20;55.90;;;;;;4979032;28;20046;-47
2023/10/08 13:27:44;;;;;;;32.35;13.40;;;22.20;56.00;;;;;;5004217;28;20072;-44
2023/10/08 13:30:12;;;;;;;31.95;13.55;;;22.30;56.10;;;;;;5020064;28;20529;-47
2023/10/08 13:32:39;;;;;;;33.20;13.57;;;22.30;56.10;;;;;;5020705;28;20748;-50